createdAt,value
2023-01-08T00:01:49.972Z,100945.66
2023-01-08T00:04:18.527Z,100955.53
2023-01-08T00:06:46.021Z,100941.69
2023-01-08T00:09:14.716Z,100946.13
2023-01-08T00:11:42.054Z,100938.25
2023-01-08T00:14:09.409Z,100933.91
2023-01-08T00:16:37.883Z,100941.72
2023-01-08T00:19:05.132Z,100935.75
2023-01-08T00:21:32.479Z,100916.44
2023-01-08T00:23:59.745Z,100904.16
2023-01-08T00:26:27.113Z,100906.69
2023-01-08T00:28:54.996Z,100916.31
2023-01-08T00:31:22.527Z,100915.59
2023-01-08T00:33:49.898Z,100926.16
2023-01-08T00:36:19.449Z,100898.84
2023-01-08T00:38:47.568Z,100901.66
2023-01-08T00:41:18.610Z,100915.69
2023-01-08T00:43:45.943Z,100911.25
2023-01-08T00:46:13.301Z,100910.22
2023-01-08T00:48:40.755Z,100917.38
2023-01-08T00:51:09.241Z,100918.25
2023-01-08T00:53:38.763Z,100924.25
2023-01-08T00:56:09.176Z,100933.81
2023-01-08T00:58:37.972Z,100910.38
2023-01-08T01:01:11.429Z,100911.97
2023-01-08T01:03:39.114Z,100898.22
2023-01-08T01:06:07.474Z,100893.88
2023-01-08T01:08:38.591Z,100895.81
2023-01-08T01:11:11.272Z,100892.22
2023-01-08T01:13:38.555Z,100905.44
2023-01-08T01:16:06.153Z,100901.75
2023-01-08T01:18:33.559Z,100888.56
2023-01-08T01:21:01.777Z,100882.47
2023-01-08T01:23:29.232Z,100880.78
2023-01-08T01:25:56.384Z,100880.03
2023-01-08T01:28:23.745Z,100889.50
2023-01-08T01:30:56.629Z,100871.22
2023-01-08T01:33:24.289Z,100888.78
2023-01-08T01:36:00.043Z,100886.97
2023-01-08T01:38:29.277Z,100882.72
2023-01-08T01:40:56.524Z,100881.78
2023-01-08T01:43:42.071Z,100869.63
2023-01-08T01:46:24.472Z,100862.75
2023-01-08T01:48:56.843Z,100860.84
2023-01-08T01:51:30.356Z,100859.22
2023-01-08T01:53:58.651Z,100882.91
2023-01-08T01:56:27.102Z,100869.69
2023-01-08T01:58:54.545Z,100872.34
2023-01-08T02:01:23.273Z,100865.28
2023-01-08T02:03:50.685Z,100867.81
2023-01-08T02:06:23.842Z,100866.03
2023-01-08T02:09:09.685Z,100882.78
2023-01-08T02:12:10.048Z,100881.91
2023-01-08T02:14:58.529Z,100874.97
2023-01-08T02:17:36.008Z,100868.09
2023-01-08T02:20:12.396Z,100845.97
2023-01-08T02:23:08.780Z,100876.69
2023-01-08T02:26:10.656Z,100854.69
2023-01-08T02:28:47.664Z,100882.78
2023-01-08T02:31:16.946Z,100891.38
2023-01-08T02:33:44.721Z,100888.81
2023-01-08T02:36:18.244Z,100894.22
2023-01-08T02:38:59.701Z,100899.34
2023-01-08T02:41:41.735Z,100889.66
2023-01-08T02:44:13.324Z,100887.94
2023-01-08T02:46:42.711Z,100886.19
2023-01-08T02:49:14.224Z,100887.16
2023-01-08T02:51:50.950Z,100881.88
2023-01-08T02:54:25.267Z,100838.13
2023-01-08T02:57:08.916Z,100882.84
2023-01-08T02:59:38.103Z,100889.06
2023-01-08T03:02:07.042Z,100903.88
2023-01-08T03:04:40.901Z,100879.25
2023-01-08T03:07:08.598Z,100878.44
2023-01-08T03:09:36.312Z,100869.69
2023-01-08T03:12:17.214Z,100878.66
2023-01-08T03:14:51.581Z,100875.72
2023-01-08T03:17:24.445Z,100881.84
2023-01-08T03:20:01.990Z,100885.38
2023-01-08T03:22:32.355Z,100872.34
2023-01-08T03:25:00.020Z,100864.41
2023-01-08T03:27:32.592Z,100874.88
2023-01-08T03:30:00.243Z,100836.06
2023-01-08T03:32:31.297Z,100858.19
2023-01-08T03:35:01.009Z,100853.69
2023-01-08T03:37:34.515Z,100852.88
2023-01-08T03:40:13.231Z,100841.66
2023-01-08T03:42:40.774Z,100841.03
2023-01-08T03:45:08.743Z,100837.34
2023-01-08T03:47:38.677Z,100821.66
2023-01-08T03:50:12.375Z,100808.53
2023-01-08T03:52:39.836Z,100810.25
2023-01-08T03:55:08.099Z,100819.97
2023-01-08T03:57:35.331Z,100824.38
2023-01-08T04:00:02.701Z,100828.47
2023-01-08T04:02:33.121Z,100831.13
2023-01-08T04:05:00.587Z,100821.41
2023-01-08T04:07:28.355Z,100817.25
2023-01-08T04:09:55.636Z,100830.09
2023-01-08T04:12:24.607Z,100827.59
2023-01-08T04:14:51.805Z,100825.00
2023-01-08T04:17:19.510Z,100830.22
2023-01-08T04:19:46.958Z,100815.28
2023-01-08T04:22:14.270Z,100805.69
2023-01-08T04:24:41.534Z,100814.44
2023-01-08T04:27:08.741Z,100811.03
2023-01-08T04:29:36.592Z,100813.59
2023-01-08T04:32:03.902Z,100813.63
2023-01-08T04:34:31.357Z,100818.16
2023-01-08T04:36:59.846Z,100809.50
2023-01-08T04:39:27.514Z,100818.19
2023-01-08T04:41:54.820Z,100817.19
2023-01-08T04:44:22.716Z,100810.13
2023-01-08T04:46:50.055Z,100808.44
2023-01-08T04:49:17.491Z,100816.31
2023-01-08T04:51:44.795Z,100812.78
2023-01-08T04:54:12.079Z,100822.38
2023-01-08T04:56:39.605Z,100818.16
2023-01-08T04:59:06.890Z,100825.03
2023-01-08T05:01:34.488Z,100813.81
2023-01-08T05:04:03.993Z,100777.69
2023-01-08T05:06:33.277Z,100821.84
2023-01-08T05:09:00.587Z,100810.38
2023-01-08T05:11:28.526Z,100798.06
2023-01-08T05:13:55.937Z,100799.84
2023-01-08T05:16:24.119Z,100809.50
2023-01-08T05:18:52.739Z,100810.41
2023-01-08T05:21:21.642Z,100791.03
2023-01-08T05:23:49.305Z,100787.69
2023-01-08T05:26:17.942Z,100775.31
2023-01-08T05:28:45.895Z,100788.50
2023-01-08T05:31:13.831Z,100759.56
2023-01-08T05:33:41.572Z,100777.25
2023-01-08T05:36:12.095Z,100772.91
2023-01-08T05:38:42.577Z,100792.09
2023-01-08T05:41:18.170Z,100779.91
2023-01-08T05:43:46.055Z,100730.66
2023-01-08T05:46:14.073Z,100772.88
2023-01-08T05:48:42.001Z,100780.78
2023-01-08T05:51:10.052Z,100778.19
2023-01-08T05:53:37.854Z,100784.28
2023-01-08T05:56:10.737Z,100784.19
2023-01-08T05:58:38.911Z,100774.69
2023-01-08T06:01:12.974Z,100791.41
2023-01-08T06:03:40.639Z,100789.63
2023-01-08T06:06:09.662Z,100760.53
2023-01-08T06:08:37.000Z,100782.69
2023-01-08T06:11:07.571Z,100768.59
2023-01-08T06:13:35.745Z,100766.88
2023-01-08T06:16:02.988Z,100770.50
2023-01-08T06:18:31.846Z,100745.13
2023-01-08T06:20:59.869Z,100749.53
2023-01-08T06:23:27.205Z,100747.03
2023-01-08T06:25:58.762Z,100740.00
2023-01-08T06:28:26.770Z,100742.63
2023-01-08T06:30:54.396Z,100733.81
2023-01-08T06:33:21.861Z,100725.09
2023-01-08T06:35:49.908Z,100682.00
2023-01-08T06:38:20.577Z,100721.59
2023-01-08T06:40:48.440Z,100708.47
2023-01-08T06:43:16.283Z,100706.75
2023-01-08T06:45:43.649Z,100708.47
2023-01-08T06:48:11.100Z,100714.56
2023-01-08T06:50:38.510Z,100698.69
2023-01-08T06:53:05.804Z,100701.44
2023-01-08T06:55:33.407Z,100707.53
2023-01-08T06:58:00.924Z,100703.13
2023-01-08T07:00:28.437Z,100700.66
2023-01-08T07:02:56.714Z,100669.97
2023-01-08T07:05:24.695Z,100655.13
2023-01-08T07:07:52.109Z,100675.38
2023-01-08T07:10:20.247Z,100684.97
2023-01-08T07:12:48.968Z,100665.72
2023-01-08T07:15:17.275Z,100664.09
2023-01-08T07:17:46.533Z,100675.50
2023-01-08T07:20:14.900Z,100673.75
2023-01-08T07:22:44.633Z,100665.06
2023-01-08T07:25:12.999Z,100664.06
2023-01-08T07:27:40.950Z,100657.09
2023-01-08T07:30:18.024Z,100654.53
2023-01-08T07:32:52.389Z,100663.28
2023-01-08T07:35:19.868Z,100658.91
2023-01-08T07:37:47.619Z,100664.97
2023-01-08T07:40:15.266Z,100661.28
2023-01-08T07:42:44.967Z,100651.81
2023-01-08T07:45:12.561Z,100639.63
2023-01-08T07:47:39.900Z,100624.78
2023-01-08T07:50:07.455Z,100628.31
2023-01-08T07:52:34.735Z,100620.50
2023-01-08T07:55:02.162Z,100611.81
2023-01-08T07:57:30.447Z,100617.91
2023-01-08T07:59:58.153Z,100612.69
2023-01-08T08:02:25.592Z,100620.59
2023-01-08T08:04:52.919Z,100610.94
2023-01-08T08:07:20.344Z,100605.72
2023-01-08T08:09:47.636Z,100597.81
2023-01-08T08:12:15.588Z,100594.44
2023-01-08T08:14:42.823Z,100572.75
2023-01-08T08:17:10.153Z,100575.41
2023-01-08T08:19:37.321Z,100574.50
2023-01-08T08:22:05.524Z,100580.66
2023-01-08T08:24:32.937Z,100586.78
2023-01-08T08:27:00.318Z,100577.22
2023-01-08T08:29:27.787Z,100578.09
2023-01-08T08:31:55.351Z,100592.19
2023-01-08T08:34:23.143Z,100593.97
2023-01-08T08:36:50.895Z,100585.28
2023-01-08T08:39:18.638Z,100595.72
2023-01-08T08:41:46.583Z,100592.28
2023-01-08T08:44:13.946Z,100597.56
2023-01-08T08:46:41.941Z,100601.06
2023-01-08T08:49:09.670Z,100582.75
2023-01-08T08:51:36.994Z,100581.09
2023-01-08T08:54:04.813Z,100566.22
2023-01-08T08:56:32.290Z,100554.03
2023-01-08T08:58:59.908Z,100560.25
2023-01-08T09:01:29.142Z,100560.25
2023-01-08T09:03:56.667Z,100572.41
2023-01-08T09:06:28.140Z,100579.56
2023-01-08T09:08:55.987Z,100577.78
2023-01-08T09:11:23.629Z,100576.13
2023-01-08T09:13:51.004Z,100567.47
2023-01-08T09:16:18.615Z,100559.59
2023-01-08T09:18:46.085Z,100562.28
2023-01-08T09:21:13.753Z,100564.81
2023-01-08T09:23:41.223Z,100573.44
2023-01-08T09:26:11.062Z,100542.75
2023-01-08T09:28:40.080Z,100577.88
2023-01-08T09:31:08.727Z,100566.53
2023-01-08T09:33:36.191Z,100567.34
2023-01-08T09:36:03.604Z,100569.28
2023-01-08T09:38:31.207Z,100563.16
2023-01-08T09:41:35.552Z,100560.47
2023-01-08T09:44:08.048Z,100567.63
2023-01-08T09:46:37.247Z,100564.94
2023-01-08T09:49:08.249Z,100560.59
2023-01-08T09:51:37.517Z,100547.56
2023-01-08T09:54:07.809Z,100514.22
2023-01-08T09:56:38.641Z,100538.06
2023-01-08T09:59:06.399Z,100538.00
2023-01-08T10:01:42.154Z,100506.38
2023-01-08T10:04:27.809Z,100537.06
2023-01-08T10:07:00.818Z,100534.44
2023-01-08T10:09:31.413Z,100525.63
2023-01-08T10:12:02.005Z,100534.44
2023-01-08T10:14:38.031Z,100518.78
2023-01-08T10:17:14.893Z,100516.88
2023-01-08T10:19:42.551Z,100527.47
2023-01-08T10:22:23.055Z,100516.16
2023-01-08T10:24:52.153Z,100512.53
2023-01-08T10:27:24.304Z,100527.53
2023-01-08T10:29:52.755Z,100520.50
2023-01-08T10:32:28.013Z,100521.47
2023-01-08T10:34:59.468Z,100482.78
2023-01-08T10:37:38.640Z,100516.16
2023-01-08T10:40:33.731Z,100504.81
2023-01-08T10:43:25.493Z,100499.59
2023-01-08T10:46:05.883Z,100484.69
2023-01-08T10:48:56.588Z,100489.97
2023-01-08T10:51:31.618Z,100483.91
2023-01-08T10:54:02.263Z,100473.34
2023-01-08T10:56:41.304Z,100488.38
2023-01-08T10:59:23.565Z,100456.84
2023-01-08T11:01:56.496Z,100465.63
2023-01-08T11:04:35.831Z,100457.88
2023-01-08T11:07:06.254Z,100440.50
2023-01-08T11:09:40.371Z,100429.25
2023-01-08T11:12:40.874Z,100431.00
2023-01-08T11:15:28.388Z,100408.25
2023-01-08T11:17:56.202Z,100406.78
2023-01-08T11:20:31.292Z,100389.47
2023-01-08T11:23:14.828Z,100390.44
2023-01-08T11:25:46.098Z,100380.03
2023-01-08T11:28:27.450Z,100373.97
2023-01-08T11:31:04.966Z,100382.78
2023-01-08T11:33:38.808Z,100372.38
2023-01-08T11:36:20.403Z,100359.44
2023-01-08T11:38:47.778Z,100354.28
2023-01-08T11:41:45.559Z,100342.94
2023-01-08T11:44:29.700Z,100350.91
2023-01-08T11:47:14.244Z,100340.47
2023-01-08T11:50:05.641Z,100338.69
2023-01-08T11:52:51.131Z,100334.34
2023-01-08T11:56:05.405Z,100329.09
2023-01-08T11:58:48.277Z,100335.25
2023-01-08T12:01:36.407Z,100323.88
2023-01-08T12:04:11.299Z,100326.50
2023-01-08T12:06:54.444Z,100322.19
2023-01-08T12:09:47.181Z,100303.88
2023-01-08T12:12:20.129Z,100271.59
2023-01-08T12:15:01.415Z,100266.44
2023-01-08T12:17:59.120Z,100255.19
2023-01-08T12:20:35.146Z,100241.22
2023-01-08T12:23:15.906Z,100267.47
2023-01-08T12:26:01.859Z,100254.34
2023-01-08T12:28:35.450Z,100241.34
2023-01-08T12:31:05.791Z,100246.56
2023-01-08T12:33:42.975Z,100243.97
2023-01-08T12:36:16.929Z,100240.47
2023-01-08T12:38:47.157Z,100241.34
2023-01-08T12:41:19.926Z,100230.88
2023-01-08T12:43:56.502Z,100237.94
2023-01-08T12:46:26.697Z,100223.94
2023-01-08T12:48:56.155Z,100170.69
2023-01-08T12:51:36.408Z,100222.28
2023-01-08T12:54:19.945Z,100206.59
2023-01-08T12:56:54.055Z,100208.31
2023-01-08T12:59:47.392Z,100214.41
2023-01-08T13:02:36.769Z,100208.31
2023-01-08T13:05:30.873Z,100182.97
2023-01-08T13:08:26.000Z,100189.13
2023-01-08T13:10:57.828Z,100181.22
2023-01-08T13:13:29.488Z,100189.94
2023-01-08T13:16:12.939Z,100176.88
2023-01-08T13:18:41.291Z,100155.91
2023-01-08T13:21:12.751Z,100162.06
2023-01-08T13:23:40.252Z,100162.91
2023-01-08T13:26:07.880Z,100158.56
2023-01-08T13:28:38.864Z,100169.09
2023-01-08T13:31:31.483Z,100165.63
2023-01-08T13:33:59.992Z,100160.41
2023-01-08T13:36:29.775Z,100140.31
2023-01-08T13:39:25.630Z,100148.19
2023-01-08T13:41:59.013Z,100156.03
2023-01-08T13:44:29.579Z,100152.56
2023-01-08T13:47:05.122Z,100139.47
2023-01-08T13:49:45.586Z,100135.09
2023-01-08T13:52:49.319Z,100145.56
2023-01-08T13:55:31.514Z,100139.47
2023-01-08T13:58:06.290Z,100138.59
2023-01-08T14:00:42.689Z,100149.94
2023-01-08T14:03:24.848Z,100160.41
2023-01-08T14:05:52.785Z,100137.69
2023-01-08T14:08:25.536Z,100104.47
2023-01-08T14:10:56.152Z,100130.72
2023-01-08T14:13:30.309Z,100121.09
2023-01-08T14:16:03.009Z,100130.69
2023-01-08T14:18:30.549Z,100131.56
2023-01-08T14:21:13.067Z,100112.38
2023-01-08T14:23:48.383Z,100102.78
2023-01-08T14:26:37.512Z,100121.97
2023-01-08T14:29:16.151Z,100094.91
2023-01-08T14:31:48.359Z,100115.00
2023-01-08T14:34:17.073Z,100113.28
2023-01-08T14:36:44.976Z,100098.44
2023-01-08T14:39:22.479Z,100074.84
2023-01-08T14:42:10.492Z,100106.28
2023-01-08T14:44:42.404Z,100090.56
2023-01-08T14:47:30.876Z,100089.72
2023-01-08T14:50:02.513Z,100085.34
2023-01-08T14:52:30.252Z,100086.19
2023-01-08T14:55:01.139Z,100098.44
2023-01-08T14:57:29.631Z,100099.28
2023-01-08T15:00:23.405Z,100105.41
2023-01-08T15:03:03.545Z,100106.28
2023-01-08T15:05:33.819Z,100121.94
2023-01-08T15:08:28.359Z,100152.47
2023-01-08T15:11:10.197Z,100130.59
2023-01-08T15:13:39.389Z,100141.06
2023-01-08T15:16:12.847Z,100160.25
2023-01-08T15:18:51.726Z,100194.28
2023-01-08T15:21:24.189Z,100175.97
2023-01-08T15:23:56.039Z,100173.28
2023-01-08T15:26:44.993Z,100175.91
2023-01-08T15:29:33.751Z,100169.78
2023-01-08T15:32:23.103Z,100198.47
2023-01-08T15:34:50.609Z,100153.91
2023-01-08T15:37:18.371Z,100184.50
2023-01-08T15:39:46.020Z,100176.63
2023-01-08T15:42:41.407Z,100178.38
2023-01-08T15:45:17.919Z,100191.47
2023-01-08T15:47:45.427Z,100199.31
2023-01-08T15:50:14.231Z,100214.13
2023-01-08T15:52:43.332Z,100203.63
2023-01-08T15:55:22.684Z,100196.66
2023-01-08T15:57:50.264Z,100188.84
2023-01-08T16:00:20.055Z,100210.69
2023-01-08T16:02:49.932Z,100183.63
2023-01-08T16:05:19.623Z,100181.84
2023-01-08T16:07:47.803Z,100184.47
2023-01-08T16:10:17.185Z,100166.97
2023-01-08T16:12:44.882Z,100177.44
2023-01-08T16:15:13.737Z,100187.84
2023-01-08T16:17:41.574Z,100165.91
2023-01-08T16:20:09.994Z,100186.91
2023-01-08T16:22:37.312Z,100209.63
2023-01-08T16:25:05.417Z,100211.34
2023-01-08T16:27:33.761Z,100206.16
2023-01-08T16:30:01.111Z,100191.34
2023-01-08T16:32:28.731Z,100189.53
2023-01-08T16:34:55.975Z,100198.25
2023-01-08T16:37:23.687Z,100180.78
2023-01-08T16:39:53.903Z,100174.72
2023-01-08T16:42:21.948Z,100167.72
2023-01-08T16:44:49.397Z,100179.06
2023-01-08T16:47:17.487Z,100186.00
2023-01-08T16:49:54.521Z,100184.22
2023-01-08T16:52:22.296Z,100185.09
2023-01-08T16:54:50.032Z,100192.03
2023-01-08T16:57:17.303Z,100185.00
2023-01-08T16:59:45.059Z,100185.88
2023-01-08T17:02:12.674Z,100175.44
2023-01-08T17:04:40.051Z,100189.34
2023-01-08T17:07:07.447Z,100179.75
2023-01-08T17:09:35.186Z,100190.22
2023-01-08T17:12:03.316Z,100188.44
2023-01-08T17:14:31.105Z,100198.94
2023-01-08T17:16:58.427Z,100202.41
2023-01-08T17:19:26.078Z,100193.69
2023-01-08T17:21:53.738Z,100197.09
2023-01-08T17:24:21.324Z,100209.31
2023-01-08T17:26:49.261Z,100216.25
2023-01-08T17:29:16.643Z,100212.75
2023-01-08T17:31:45.374Z,100207.47
2023-01-08T17:34:13.797Z,100199.63
2023-01-08T17:36:41.504Z,100225.03
2023-01-08T17:39:10.515Z,100231.13
2023-01-08T17:41:57.040Z,100218.06
2023-01-08T17:44:26.712Z,100206.75
2023-01-08T17:46:53.969Z,100212.00
2023-01-08T17:49:23.022Z,100218.09
2023-01-08T17:52:09.776Z,100207.56
2023-01-08T17:54:54.843Z,100231.97
2023-01-08T17:57:40.654Z,100221.47
2023-01-08T18:00:25.494Z,100227.53
2023-01-08T18:03:07.502Z,100220.50
2023-01-08T18:05:42.970Z,100228.41
2023-01-08T18:08:27.105Z,100229.34
2023-01-08T18:11:27.000Z,100240.53
2023-01-08T18:14:05.674Z,100269.25
2023-01-08T18:16:41.759Z,100298.03
2023-01-08T18:19:11.163Z,100326.78
2023-01-08T18:21:43.354Z,100335.53
2023-01-08T18:24:11.968Z,100338.94
2023-01-08T18:26:40.288Z,100338.94
2023-01-08T18:29:07.786Z,100345.00
2023-01-08T18:31:35.557Z,100354.53
2023-01-08T18:34:04.219Z,100346.56
2023-01-08T18:36:32.893Z,100340.38
2023-01-08T18:39:01.237Z,100343.81
2023-01-08T18:41:47.755Z,100349.91
2023-01-08T18:44:15.606Z,100361.13
2023-01-08T18:46:44.500Z,100378.63
2023-01-08T18:49:13.097Z,100385.47
2023-01-08T18:51:40.542Z,100386.28
2023-01-08T18:54:10.041Z,100397.59
2023-01-08T18:56:37.972Z,100394.03
2023-01-08T18:59:06.804Z,100373.00
2023-01-08T19:01:36.157Z,100408.72
2023-01-08T19:04:04.561Z,100414.03
2023-01-08T19:06:32.332Z,100418.28
2023-01-08T19:09:01.807Z,100433.13
2023-01-08T19:11:29.789Z,100424.38
2023-01-08T19:13:57.635Z,100426.09
2023-01-08T19:16:25.246Z,100400.84
2023-01-08T19:18:52.902Z,100419.19
2023-01-08T19:21:20.806Z,100405.25
2023-01-08T19:23:51.403Z,100400.00
2023-01-08T19:26:25.715Z,100364.16
2023-01-08T19:28:53.163Z,100393.81
2023-01-08T19:31:20.501Z,100415.63
2023-01-08T19:33:47.734Z,100405.16
2023-01-08T19:36:21.596Z,100372.84
2023-01-08T19:38:48.970Z,100371.13
2023-01-08T19:41:35.369Z,100390.22
2023-01-08T19:44:03.116Z,100411.09
2023-01-08T19:46:32.991Z,100420.56
2023-01-08T19:49:01.178Z,100436.28
2023-01-08T19:51:31.797Z,100431.84
2023-01-08T19:53:59.999Z,100458.03
2023-01-08T19:56:28.177Z,100452.88
2023-01-08T19:58:57.285Z,100443.16
2023-01-08T20:01:27.045Z,100453.66
2023-01-08T20:03:55.553Z,100457.09
2023-01-08T20:06:25.388Z,100432.53
2023-01-08T20:09:00.644Z,100468.38
2023-01-08T20:11:42.754Z,100455.28
2023-01-08T20:14:11.326Z,100442.91
2023-01-08T20:16:39.980Z,100463.13
2023-01-08T20:19:11.246Z,100471.69
2023-01-08T20:21:44.349Z,100476.97
2023-01-08T20:24:16.332Z,100495.25
2023-01-08T20:26:48.248Z,100488.13
2023-01-08T20:29:23.814Z,100499.63
2023-01-08T20:31:58.005Z,100497.69
2023-01-08T20:34:27.649Z,100507.22
2023-01-08T20:36:56.883Z,100480.63
2023-01-08T20:39:28.781Z,100522.75
2023-01-08T20:42:04.869Z,100530.50
2023-01-08T20:44:36.332Z,100533.97
2023-01-08T20:47:09.355Z,100530.34
2023-01-08T20:49:37.702Z,100543.22
2023-01-08T20:52:05.279Z,100557.09
2023-01-08T20:54:32.823Z,100562.31
2023-01-08T20:57:00.961Z,100565.75
2023-01-08T20:59:28.494Z,100568.31
2023-01-08T21:02:08.881Z,100575.13
2023-01-08T21:04:38.208Z,100573.28
2023-01-08T21:07:05.616Z,100587.28
2023-01-08T21:09:32.978Z,100593.25
2023-01-08T21:12:00.509Z,100588.88
2023-01-08T21:14:27.839Z,100595.75
2023-01-08T21:16:55.150Z,100607.06
2023-01-08T21:19:22.648Z,100608.59
2023-01-08T21:21:49.997Z,100606.78
2023-01-08T21:24:20.575Z,100619.72
2023-01-08T21:26:47.935Z,100617.78
2023-01-08T21:29:17.348Z,100621.03
2023-01-08T21:31:45.744Z,100622.00
2023-01-08T21:34:14.220Z,100629.72
2023-01-08T21:36:53.639Z,100598.03
2023-01-08T21:39:21.176Z,100642.88
2023-01-08T21:42:07.020Z,100639.31
2023-01-08T21:44:52.777Z,100639.09
2023-01-08T21:47:21.020Z,100638.00
2023-01-08T21:49:48.690Z,100625.75
2023-01-08T21:52:35.097Z,100630.72
2023-01-08T21:55:02.743Z,100615.50
2023-01-08T21:57:30.076Z,100630.31
2023-01-08T21:59:57.821Z,100605.53
2023-01-08T22:02:25.644Z,100624.75
2023-01-08T22:04:57.561Z,100655.03
2023-01-08T22:07:26.277Z,100657.56
2023-01-08T22:09:53.966Z,100662.78
2023-01-08T22:12:23.038Z,100673.19
2023-01-08T22:14:53.830Z,100672.25
2023-01-08T22:17:22.414Z,100679.22
2023-01-08T22:19:54.043Z,100679.16
2023-01-08T22:22:21.581Z,100700.03
2023-01-08T22:24:48.940Z,100702.69
2023-01-08T22:27:16.320Z,100691.09
2023-01-08T22:29:43.698Z,100700.94
2023-01-08T22:32:12.005Z,100708.81
2023-01-08T22:34:39.920Z,100717.56
2023-01-08T22:37:07.475Z,100714.66
2023-01-08T22:39:34.904Z,100717.28
2023-01-08T22:42:02.434Z,100719.81
2023-01-08T22:44:29.736Z,100721.25
2023-01-08T22:46:59.438Z,100724.63
2023-01-08T22:49:26.652Z,100704.00
2023-01-08T22:51:54.365Z,100731.25
2023-01-08T22:54:21.888Z,100742.13
2023-01-08T22:56:49.073Z,100749.94
2023-01-08T22:59:16.333Z,100764.44
2023-01-08T23:01:43.793Z,100793.16
2023-01-08T23:04:11.254Z,100794.81
2023-01-08T23:06:39.008Z,100789.88
2023-01-08T23:09:06.438Z,100770.78
2023-01-08T23:11:34.673Z,100766.47
2023-01-08T23:14:02.103Z,100778.00
2023-01-08T23:16:29.435Z,100770.16
2023-01-08T23:18:57.327Z,100774.47
2023-01-08T23:21:26.743Z,100772.41
2023-01-08T23:23:54.653Z,100776.44
2023-01-08T23:26:31.272Z,100780.84
2023-01-08T23:29:01.179Z,100765.72
2023-01-08T23:31:30.858Z,100754.00
2023-01-08T23:33:58.543Z,100779.50
2023-01-08T23:36:26.581Z,100782.81
2023-01-08T23:38:56.493Z,100786.25
2023-01-08T23:41:34.870Z,100762.34
2023-01-08T23:44:13.998Z,100796.47
2023-01-08T23:46:41.411Z,100797.13
2023-01-08T23:49:10.337Z,100792.81
2023-01-08T23:51:37.946Z,100776.91
2023-01-08T23:54:05.217Z,100786.53
2023-01-08T23:56:32.562Z,100782.75
2023-01-08T23:59:00.104Z,100792.41
